Time;durP1;ratioP1;P1;durP2;ratioP2;P2;SDS_P1;SDS_P2;PMS_P1;PMS_P2;Temp;Humidity;BMP_temperature;BMP_pressure;BME280_temperature;BME280_humidity;BME280_pressure;Samples;Min_cycle;Max_cycle;Signal;HPM_P1;HPM_P2
2020/12/22 00:00:16;;;;;;;11.43;9.60;;;8.90;99.90;;;;;;4952457;29;20235;-81
2020/12/22 00:02:43;;;;;;;13.00;10.23;;;8.90;99.90;;;;;;4949613;29;20484;-82
2020/12/22 00:05:12;;;;;;;13.25;10.88;;;8.90;99.90;;;;;;4954556;29;20460;-81
2020/12/22 00:07:41;;;;;;;10.83;9.30;;;8.90;99.90;;;;;;4958469;29;20219;-82
2020/12/22 00:10:09;;;;;;;11.43;9.80;;;8.90;99.90;;;;;;4975524;28;20863;-81
2020/12/22 00:12:38;;;;;;;11.60;9.97;;;9.00;99.90;;;;;;4960767;28;20504;-81
2020/12/22 00:15:07;;;;;;;11.27;10.00;;;9.00;99.90;;;;;;4978049;28;20940;-81
2020/12/22 00:17:35;;;;;;;10.27;9.07;;;9.00;99.90;;;;;;4960088;28;20480;-81
2020/12/22 00:20:02;;;;;;;9.77;8.77;;;9.00;99.90;;;;;;4977825;28;20481;-81
2020/12/22 00:22:31;;;;;;;10.10;9.07;;;9.00;99.90;;;;;;4959886;28;20460;-81
2020/12/22 00:24:58;;;;;;;10.50;9.47;;;9.00;99.90;;;;;;4960407;28;20450;-81
2020/12/22 00:27:25;;;;;;;11.83;10.10;;;9.10;99.90;;;;;;4960399;28;20559;-81
2020/12/22 00:29:53;;;;;;;11.40;9.67;;;9.10;99.90;;;;;;4960643;28;20457;-81
2020/12/22 00:32:20;;;;;;;10.40;9.30;;;9.10;99.90;;;;;;4977759;28;20437;-81
2020/12/22 00:34:47;;;;;;;10.07;8.67;;;9.10;99.90;;;;;;4960498;28;20515;-81
2020/12/22 00:37:15;;;;;;;11.40;8.93;;;9.20;99.90;;;;;;4960302;28;20461;-81
2020/12/22 00:39:43;;;;;;;10.47;9.37;;;9.20;99.90;;;;;;4960585;28;20560;-82
2020/12/22 00:42:10;;;;;;;9.00;7.97;;;9.20;99.90;;;;;;4960800;28;20461;-81
2020/12/22 00:44:37;;;;;;;10.00;8.93;;;9.20;99.90;;;;;;4978061;28;20438;-82
2020/12/22 00:47:04;;;;;;;9.90;8.33;;;9.20;99.90;;;;;;4957401;29;20459;-82
2020/12/22 00:49:31;;;;;;;10.00;8.80;;;9.20;99.90;;;;;;4973764;28;20462;-81
2020/12/22 00:51:59;;;;;;;8.13;7.30;;;9.20;99.90;;;;;;4972924;28;20454;-81
2020/12/22 00:54:28;;;;;;;8.83;8.03;;;9.30;99.90;;;;;;4941219;29;20458;-81
2020/12/22 00:56:56;;;;;;;8.90;7.60;;;9.30;99.90;;;;;;4940905;29;20483;-81
2020/12/22 00:59:39;;;;;;;8.53;7.63;;;9.30;99.90;;;;;;4972736;28;20895;-81
2020/12/22 01:02:07;;;;;;;9.47;8.10;;;9.30;99.90;;;;;;4973103;28;20451;-81
2020/12/22 01:04:35;;;;;;;8.17;7.27;;;9.30;99.90;;;;;;4973550;28;20463;-81
2020/12/22 01:07:02;;;;;;;8.10;7.30;;;9.30;99.90;;;;;;4958484;28;20519;-82
2020/12/22 01:09:30;;;;;;;8.10;7.03;;;9.30;99.90;;;;;;4958592;29;20466;-81
2020/12/22 01:11:58;;;;;;;7.90;6.83;;;9.40;99.90;;;;;;4944006;29;20458;-81
2020/12/22 01:14:25;;;;;;;8.10;7.30;;;9.40;99.90;;;;;;4940503;29;20451;-82
2020/12/22 01:16:54;;;;;;;7.10;6.40;;;9.40;99.90;;;;;;4957579;29;20473;-82
2020/12/22 01:19:21;;;;;;;7.60;6.80;;;9.40;99.90;;;;;;4939815;29;20577;-81
2020/12/22 01:21:52;;;;;;;8.10;6.90;;;9.40;99.90;;;;;;4972286;28;20453;-81
2020/12/22 01:24:19;;;;;;;8.97;7.50;;;9.50;99.90;;;;;;4955878;29;20442;-81
2020/12/22 01:26:46;;;;;;;8.70;7.77;;;9.40;99.90;;;;;;4944314;28;20454;-81
2020/12/22 01:29:14;;;;;;;8.70;7.80;;;9.50;99.90;;;;;;4991212;28;20521;-81
2020/12/22 01:31:41;;;;;;;8.30;7.40;;;9.50;99.90;;;;;;4958500;28;20482;-81
2020/12/22 01:34:09;;;;;;;7.50;6.50;;;9.60;99.90;;;;;;4994821;28;20229;-81
2020/12/22 01:36:36;;;;;;;7.60;6.53;;;9.60;99.90;;;;;;4964586;28;20489;-81
2020/12/22 01:39:03;;;;;;;7.97;7.00;;;9.60;99.90;;;;;;4996566;28;20512;-81
2020/12/22 01:41:32;;;;;;;8.00;7.00;;;9.60;99.90;;;;;;4963906;28;20442;-81
2020/12/22 01:44:04;;;;;;;9.03;7.77;;;9.60;99.90;;;;;;4963663;28;20516;-81
2020/12/22 01:46:35;;;;;;;8.70;7.40;;;9.60;99.90;;;;;;4995769;28;20442;-81
2020/12/22 01:49:04;;;;;;;8.23;7.13;;;9.70;99.90;;;;;;4963605;28;20473;-81
2020/12/22 01:51:31;;;;;;;9.10;7.67;;;9.60;99.90;;;;;;4963378;28;20477;-81
2020/12/22 01:54:00;;;;;;;7.90;7.00;;;9.70;99.90;;;;;;4963419;28;20452;-81
2020/12/22 01:56:28;;;;;;;8.17;6.87;;;9.70;99.90;;;;;;4963494;28;20452;-81
2020/12/22 01:58:56;;;;;;;7.47;6.47;;;9.70;99.90;;;;;;4980465;28;20496;-81
2020/12/22 02:01:23;;;;;;;8.03;5.73;;;9.70;99.90;;;;;;4963263;28;20491;-81
2020/12/22 02:03:51;;;;;;;6.87;6.07;;;9.70;99.90;;;;;;4981096;28;20508;-81
2020/12/22 02:06:19;;;;;;;6.40;5.27;;;9.70;99.90;;;;;;4963637;28;20457;-82
2020/12/22 02:08:46;;;;;;;6.37;5.77;;;9.80;99.90;;;;;;4963459;28;21098;-82
2020/12/22 02:11:22;;;;;;;6.10;5.50;;;9.80;99.90;;;;;;4963424;28;20824;-82
2020/12/22 02:13:49;;;;;;;6.53;5.83;;;9.80;99.90;;;;;;4960694;29;20496;-82
2020/12/22 02:16:17;;;;;;;6.80;5.73;;;9.80;99.90;;;;;;4944084;29;20565;-81
2020/12/22 02:18:45;;;;;;;7.40;6.10;;;9.80;99.90;;;;;;4960422;29;20473;-82
2020/12/22 02:21:13;;;;;;;7.17;6.13;;;9.80;99.90;;;;;;4944789;28;20565;-82
2020/12/22 02:23:40;;;;;;;8.00;6.23;;;9.80;99.90;;;;;;4964094;28;20552;-82
2020/12/22 02:26:08;;;;;;;9.80;7.27;;;9.90;99.90;;;;;;4963725;28;20499;-82
2020/12/22 02:28:35;;;;;;;9.90;7.60;;;9.90;99.90;;;;;;4963393;28;20543;-81
2020/12/22 02:31:07;;;;;;;9.10;6.50;;;9.90;99.90;;;;;;4961563;29;20505;-81
2020/12/22 02:33:34;;;;;;;9.23;7.60;;;9.90;99.90;;;;;;4945293;29;20485;-81
2020/12/22 02:36:02;;;;;;;10.67;8.50;;;9.90;99.90;;;;;;4944924;29;20832;-81
2020/12/22 02:38:31;;;;;;;9.60;7.83;;;9.90;99.90;;;;;;4945377;29;20479;-81
2020/12/22 02:40:58;;;;;;;10.10;8.20;;;9.90;99.90;;;;;;4962789;29;21003;-81
2020/12/22 02:43:25;;;;;;;11.83;9.13;;;10.00;99.90;;;;;;4945644;29;20797;-82
2020/12/22 02:45:52;;;;;;;11.53;9.03;;;10.00;99.90;;;;;;4945612;29;20486;-82
2020/12/22 02:48:19;;;;;;;10.57;8.40;;;10.00;99.90;;;;;;4978126;28;20471;-81
2020/12/22 02:50:47;;;;;;;11.60;9.17;;;10.10;99.90;;;;;;4979615;28;20454;-81
2020/12/22 02:53:14;;;;;;;11.20;9.77;;;10.10;99.90;;;;;;4962090;29;20462;-82
2020/12/22 02:55:43;;;;;;;12.00;10.30;;;10.10;99.90;;;;;;4945825;29;20992;-82
2020/12/22 02:58:10;;;;;;;12.83;10.27;;;10.10;99.90;;;;;;4945894;29;20478;-82
2020/12/22 03:00:38;;;;;;;14.40;11.37;;;10.10;99.90;;;;;;4959832;29;20545;-82
2020/12/22 03:03:06;;;;;;;14.50;10.13;;;10.20;99.90;;;;;;4948942;29;20478;-82
2020/12/22 03:05:33;;;;;;;16.17;11.97;;;10.20;99.90;;;;;;4963882;29;20797;-82
2020/12/22 03:08:00;;;;;;;16.92;12.30;;;10.20;99.90;;;;;;4955514;28;20467;-82
2020/12/22 03:10:27;;;;;;;15.17;11.80;;;10.30;99.90;;;;;;4979119;28;20191;-81
2020/12/22 03:12:55;;;;;;;15.43;11.87;;;10.40;99.90;;;;;;4960351;29;20541;-81
2020/12/22 03:15:22;;;;;;;16.03;12.10;;;10.40;99.90;;;;;;4943552;29;20490;-81
2020/12/22 03:17:50;;;;;;;17.50;12.60;;;10.40;99.90;;;;;;4948223;28;20513;-82
2020/12/22 03:20:17;;;;;;;19.40;13.10;;;10.40;99.90;;;;;;4979915;28;20568;-82
2020/12/22 03:22:45;;;;;;;16.37;12.70;;;10.40;99.90;;;;;;4962795;28;20520;-82
2020/12/22 03:25:13;;;;;;;17.37;13.60;;;10.50;99.90;;;;;;4962440;28;20540;-82
2020/12/22 03:27:40;;;;;;;17.03;12.50;;;10.50;99.90;;;;;;4962809;28;20497;-82
2020/12/22 03:30:11;;;;;;;13.40;11.17;;;10.60;99.90;;;;;;4968368;28;20460;-82
2020/12/22 03:32:38;;;;;;;14.50;11.53;;;10.60;99.90;;;;;;4962462;28;20941;-82
2020/12/22 03:35:08;;;;;;;17.67;11.83;;;10.60;99.90;;;;;;4963680;28;20485;-81
2020/12/22 03:37:36;;;;;;;16.70;12.30;;;10.70;99.90;;;;;;4994809;28;20489;-82
2020/12/22 03:40:05;;;;;;;13.87;10.80;;;10.70;99.90;;;;;;4978898;28;20524;-82
2020/12/22 03:42:33;;;;;;;13.80;10.50;;;10.80;99.90;;;;;;4961469;28;20454;-82
2020/12/22 03:45:00;;;;;;;13.70;10.83;;;10.80;99.90;;;;;;4961231;28;20978;-82
2020/12/22 03:47:28;;;;;;;13.37;9.70;;;10.90;99.90;;;;;;4993471;28;20840;-81
2020/12/22 03:49:55;;;;;;;12.63;10.10;;;10.90;99.90;;;;;;4961396;28;20529;-81
2020/12/22 03:52:23;;;;;;;13.73;9.70;;;10.90;99.90;;;;;;4961486;28;20537;-82
2020/12/22 03:54:50;;;;;;;11.37;9.10;;;11.00;99.90;;;;;;4961076;28;20456;-82
2020/12/22 03:57:17;;;;;;;12.33;8.43;;;11.00;99.90;;;;;;4977637;28;20552;-82
2020/12/22 03:59:44;;;;;;;11.67;9.20;;;11.10;99.90;;;;;;4979175;28;20817;-82
2020/12/22 04:02:12;;;;;;;11.20;8.60;;;11.10;99.90;;;;;;4994158;28;20548;-82
2020/12/22 04:04:41;;;;;;;11.37;8.30;;;11.20;99.90;;;;;;4962140;28;20513;-82
2020/12/22 04:07:08;;;;;;;9.80;7.50;;;11.20;99.90;;;;;;4961907;28;20453;-82
2020/12/22 04:09:35;;;;;;;10.40;7.70;;;11.20;99.90;;;;;;4961718;28;20537;-82
2020/12/22 04:12:02;;;;;;;10.33;7.20;;;11.20;99.90;;;;;;4961679;28;20496;-82
2020/12/22 04:14:30;;;;;;;9.00;6.63;;;11.30;99.90;;;;;;4993844;28;20461;-81
2020/12/22 04:16:57;;;;;;;9.13;6.20;;;11.40;99.90;;;;;;4961383;28;20864;-82
2020/12/22 04:19:25;;;;;;;9.57;6.57;;;11.40;99.90;;;;;;4961076;28;20883;-82
2020/12/22 04:21:53;;;;;;;7.73;5.90;;;11.40;99.90;;;;;;4961561;28;20557;-82
2020/12/22 04:24:24;;;;;;;8.00;5.73;;;11.40;99.90;;;;;;4961291;28;20473;-82
2020/12/22 04:26:51;;;;;;;7.80;6.30;;;11.50;99.90;;;;;;4955919;29;20448;-81
2020/12/22 04:29:19;;;;;;;7.73;5.17;;;11.50;99.90;;;;;;4974515;28;20226;-82
2020/12/22 04:31:46;;;;;;;7.37;5.63;;;11.50;99.90;;;;;;4942242;29;20538;-82
2020/12/22 04:34:14;;;;;;;7.20;5.40;;;11.60;99.90;;;;;;4960011;29;20448;-82
2020/12/22 04:36:41;;;;;;;7.20;4.97;;;11.60;99.90;;;;;;4975000;28;20199;-82
2020/12/22 04:39:10;;;;;;;7.30;5.50;;;11.60;99.90;;;;;;4942811;29;20980;-82
2020/12/22 04:41:39;;;;;;;6.50;5.17;;;11.70;99.90;;;;;;4959590;29;20980;-82
2020/12/22 04:44:06;;;;;;;8.67;5.77;;;11.70;99.90;;;;;;4975214;28;20517;-81
2020/12/22 04:46:34;;;;;;;6.57;5.10;;;11.70;99.90;;;;;;4943274;29;20463;-82
2020/12/22 04:49:02;;;;;;;7.03;5.30;;;11.70;99.90;;;;;;4960803;28;21011;-82
2020/12/22 04:51:32;;;;;;;6.17;5.10;;;11.80;99.90;;;;;;4966958;28;20528;-81
2020/12/22 04:54:05;;;;;;;5.60;4.50;;;11.80;99.90;;;;;;4994722;28;20959;-82
2020/12/22 04:56:33;;;;;;;8.03;5.27;;;11.80;99.90;;;;;;4961848;28;20462;-82
2020/12/22 04:59:01;;;;;;;6.03;4.90;;;11.80;99.90;;;;;;4962247;28;20994;-82
2020/12/22 05:01:28;;;;;;;4.87;4.20;;;11.90;99.90;;;;;;4961818;28;20515;-82
2020/12/22 05:03:55;;;;;;;6.90;5.10;;;11.90;99.90;;;;;;4961690;28;20477;-82
2020/12/22 05:06:23;;;;;;;6.30;4.70;;;11.90;99.90;;;;;;4979383;28;20468;-82
2020/12/22 05:08:50;;;;;;;5.93;5.00;;;11.90;99.90;;;;;;4993853;28;20477;-83
2020/12/22 05:11:18;;;;;;;5.93;5.10;;;12.00;99.90;;;;;;4982188;28;20455;-83
2020/12/22 05:13:48;;;;;;;5.97;5.17;;;12.00;99.90;;;;;;4982519;28;20451;-82
2020/12/22 05:16:15;;;;;;;6.87;5.37;;;12.00;99.90;;;;;;4972965;28;20443;-82
2020/12/22 05:18:43;;;;;;;6.83;5.77;;;12.00;99.90;;;;;;4956819;29;20470;-82
2020/12/22 05:21:23;;;;;;;6.57;5.80;;;12.10;99.90;;;;;;4940740;29;20466;-81
2020/12/22 05:23:51;;;;;;;7.97;6.10;;;12.10;99.90;;;;;;4957136;29;20490;-82
2020/12/22 05:26:21;;;;;;;6.40;5.13;;;12.10;99.90;;;;;;4956704;29;20510;-82
2020/12/22 05:28:49;;;;;;;7.70;5.53;;;12.10;99.90;;;;;;4957573;29;20566;-82
2020/12/22 05:31:18;;;;;;;6.23;5.50;;;12.20;99.90;;;;;;4954047;29;20500;-82
2020/12/22 05:33:46;;;;;;;5.67;4.70;;;12.20;99.90;;;;;;4940231;29;20451;-82
2020/12/22 05:36:14;;;;;;;5.30;4.80;;;12.20;99.90;;;;;;4940364;29;20440;-82
2020/12/22 05:38:44;;;;;;;5.47;4.17;;;12.20;99.90;;;;;;4955327;29;20491;-82
2020/12/22 05:41:11;;;;;;;5.83;4.60;;;12.30;99.90;;;;;;4957753;29;20471;-83
2020/12/22 05:43:39;;;;;;;4.93;4.43;;;12.30;99.90;;;;;;4942818;29;20516;-82
2020/12/22 05:46:08;;;;;;;4.90;4.40;;;12.30;99.90;;;;;;4954109;29;20451;-83
2020/12/22 05:48:36;;;;;;;6.03;4.90;;;12.30;99.90;;;;;;4954645;29;20468;-82
2020/12/22 05:51:07;;;;;;;4.70;4.20;;;12.30;99.90;;;;;;4956778;29;20513;-81
2020/12/22 05:53:41;;;;;;;5.33;3.87;;;12.40;99.90;;;;;;4956412;29;20447;-81
2020/12/22 05:56:19;;;;;;;4.90;4.50;;;12.40;99.90;;;;;;4956633;29;20961;-81
2020/12/22 05:58:46;;;;;;;4.32;3.70;;;12.40;99.90;;;;;;4956372;29;20462;-82
2020/12/22 06:01:29;;;;;;;4.43;3.47;;;12.40;99.90;;;;;;4956910;29;20702;-81
2020/12/22 06:03:58;;;;;;;3.50;3.03;;;12.40;99.90;;;;;;4956895;29;20439;-82
2020/12/22 06:06:30;;;;;;;4.77;3.40;;;12.40;99.90;;;;;;4989287;28;20490;-82
2020/12/22 06:08:59;;;;;;;3.92;3.40;;;12.40;99.90;;;;;;4955697;29;20456;-82
2020/12/22 06:11:28;;;;;;;4.23;3.20;;;12.50;99.90;;;;;;4954359;29;20234;-82
2020/12/22 06:13:57;;;;;;;3.30;2.90;;;12.50;99.90;;;;;;4956674;29;20453;-82
2020/12/22 06:16:26;;;;;;;5.43;3.33;;;12.50;99.90;;;;;;4952538;29;20458;-82
2020/12/22 06:18:53;;;;;;;4.50;3.20;;;12.50;99.90;;;;;;4938017;29;21068;-82
2020/12/22 06:21:21;;;;;;;3.97;2.93;;;12.50;99.90;;;;;;4971254;28;20531;-82
2020/12/22 06:23:50;;;;;;;3.63;3.00;;;12.50;99.90;;;;;;4940813;29;20889;-82
2020/12/22 06:26:17;;;;;;;4.40;3.40;;;12.50;99.90;;;;;;4940291;29;20451;-81
2020/12/22 06:28:45;;;;;;;3.67;3.27;;;12.50;99.90;;;;;;4940644;29;20482;-82
2020/12/22 06:31:21;;;;;;;4.00;3.40;;;12.50;99.90;;;;;;4942030;29;20455;-81
2020/12/22 06:33:49;;;;;;;5.40;4.03;;;12.50;99.90;;;;;;4941006;29;20462;-82
2020/12/22 06:36:18;;;;;;;3.37;3.07;;;12.50;99.90;;;;;;4942035;29;20471;-82
2020/12/22 06:38:50;;;;;;;4.00;3.57;;;12.50;99.90;;;;;;4940909;29;20468;-82
2020/12/22 06:41:46;;;;;;;4.57;3.80;;;12.50;99.90;;;;;;4940919;29;20998;-82
2020/12/22 06:44:22;;;;;;;6.20;4.17;;;12.50;99.90;;;;;;4942511;29;20487;-82
2020/12/22 06:46:51;;;;;;;5.23;4.43;;;12.50;99.90;;;;;;4941363;29;20458;-82
2020/12/22 06:49:53;;;;;;;6.07;5.10;;;12.50;99.90;;;;;;4942118;29;20479;-81
2020/12/22 06:52:33;;;;;;;5.80;5.30;;;12.50;99.90;;;;;;4940726;29;20882;-82
2020/12/22 06:55:04;;;;;;;6.70;6.10;;;12.50;99.90;;;;;;4941462;29;20459;-82
2020/12/22 06:57:46;;;;;;;5.60;4.93;;;12.50;99.90;;;;;;4973634;28;20499;-82
2020/12/22 07:00:37;;;;;;;5.50;4.90;;;12.50;99.90;;;;;;4948346;29;20893;-82
2020/12/22 07:03:14;;;;;;;6.47;5.30;;;12.50;99.90;;;;;;4974145;28;20459;-82
2020/12/22 07:05:47;;;;;;;6.20;4.50;;;12.50;99.90;;;;;;4957959;28;20448;-82
2020/12/22 07:08:17;;;;;;;5.23;4.30;;;12.50;99.90;;;;;;4957601;29;20856;-82
2020/12/22 07:10:45;;;;;;;5.63;4.07;;;12.50;99.90;;;;;;4958716;29;20523;-82
2020/12/22 07:13:14;;;;;;;6.13;4.57;;;12.50;99.90;;;;;;4958295;29;20464;-82
2020/12/22 07:15:45;;;;;;;7.00;4.47;;;12.50;99.90;;;;;;4972349;28;20459;-83
2020/12/22 07:18:15;;;;;;;5.67;4.67;;;12.50;99.90;;;;;;4992386;28;20536;-82
2020/12/22 07:20:44;;;;;;;5.40;4.27;;;12.50;99.90;;;;;;4959156;29;20463;-82
2020/12/22 07:23:13;;;;;;;5.07;4.40;;;12.50;99.90;;;;;;4960256;29;20953;-82
2020/12/22 07:25:42;;;;;;;5.37;4.43;;;12.50;99.90;;;;;;4959693;29;20451;-82
2020/12/22 07:28:15;;;;;;;8.20;5.57;;;12.50;99.90;;;;;;4956511;29;20573;-81
2020/12/22 07:30:42;;;;;;;7.40;5.85;;;12.50;99.90;;;;;;4939599;29;20532;-82
2020/12/22 07:33:09;;;;;;;5.60;4.63;;;12.60;99.90;;;;;;4955127;28;20199;-82
2020/12/22 07:35:36;;;;;;;5.50;4.20;;;12.60;99.90;;;;;;4956414;29;20455;-82
2020/12/22 07:38:06;;;;;;;4.93;4.33;;;12.60;99.90;;;;;;4956383;29;20542;-82
2020/12/22 07:40:39;;;;;;;7.20;4.43;;;12.60;99.90;;;;;;4955992;29;21049;-82
2020/12/22 07:43:07;;;;;;;4.80;4.37;;;12.60;99.90;;;;;;4971477;28;20498;-82
2020/12/22 07:45:35;;;;;;;5.37;4.43;;;12.60;99.90;;;;;;4955927;29;20446;-81
2020/12/22 07:48:07;;;;;;;6.20;5.27;;;12.60;99.90;;;;;;4958469;28;20462;-82
2020/12/22 07:50:34;;;;;;;6.73;5.90;;;12.60;99.90;;;;;;4959813;29;20466;-82
2020/12/22 07:53:02;;;;;;;6.13;5.50;;;12.60;99.90;;;;;;4959517;29;20490;-82
2020/12/22 07:55:38;;;;;;;7.10;5.97;;;12.60;99.90;;;;;;4965006;29;21020;-82
2020/12/22 07:58:07;;;;;;;6.43;5.33;;;12.60;99.90;;;;;;4958355;29;20988;-82
2020/12/22 08:00:35;;;;;;;5.53;4.60;;;12.60;99.90;;;;;;4958375;29;20557;-82
2020/12/22 08:03:20;;;;;;;5.77;4.90;;;12.60;99.90;;;;;;4989742;28;20443;-82
2020/12/22 08:06:01;;;;;;;6.07;5.03;;;12.60;99.90;;;;;;4957673;29;20450;-83
2020/12/22 08:08:29;;;;;;;5.60;4.27;;;12.60;99.90;;;;;;4957254;29;20478;-82
2020/12/22 08:10:57;;;;;;;6.63;4.30;;;12.60;99.90;;;;;;4954481;29;21017;-82
2020/12/22 08:13:26;;;;;;;6.83;4.60;;;12.60;99.90;;;;;;4939105;29;20861;-81
2020/12/22 08:15:55;;;;;;;5.50;4.90;;;12.60;99.90;;;;;;4938924;29;20487;-81
2020/12/22 08:18:24;;;;;;;5.40;3.90;;;12.60;99.90;;;;;;4954734;29;20829;-82
2020/12/22 08:20:56;;;;;;;5.80;3.80;;;12.60;99.90;;;;;;4957591;29;21039;-82
2020/12/22 08:23:24;;;;;;;5.30;4.30;;;12.60;99.90;;;;;;4989951;28;20438;-82
2020/12/22 08:25:52;;;;;;;6.70;4.70;;;12.60;99.90;;;;;;4957411;29;20450;-82
2020/12/22 08:28:27;;;;;;;5.87;4.70;;;12.60;99.90;;;;;;4957869;29;20494;-82
2020/12/22 08:30:55;;;;;;;6.10;5.60;;;12.60;99.90;;;;;;4958091;29;20454;-82
2020/12/22 08:33:23;;;;;;;7.68;6.97;;;12.60;99.90;;;;;;4956530;29;20444;-82
2020/12/22 08:35:51;;;;;;;7.10;6.40;;;12.70;99.90;;;;;;4990897;28;20257;-82
2020/12/22 08:38:26;;;;;;;6.97;6.33;;;12.70;99.90;;;;;;4990079;28;20894;-82
2020/12/22 08:40:56;;;;;;;7.95;7.15;;;12.70;99.90;;;;;;4958112;29;20456;-82
2020/12/22 08:43:24;;;;;;;6.67;6.07;;;12.70;99.90;;;;;;4957587;28;20227;-81
2020/12/22 08:45:53;;;;;;;7.43;6.20;;;12.70;99.90;;;;;;4959131;28;20472;-82
2020/12/22 08:48:21;;;;;;;6.17;5.50;;;12.70;99.90;;;;;;4957240;29;20525;-82
2020/12/22 08:50:52;;;;;;;6.83;6.10;;;12.70;99.90;;;;;;4955701;29;20458;-82
2020/12/22 08:53:37;;;;;;;7.67;6.97;;;12.70;99.90;;;;;;4957791;29;20493;-82
2020/12/22 08:56:09;;;;;;;7.90;7.20;;;12.70;99.90;;;;;;4956649;29;20454;-82
2020/12/22 08:58:48;;;;;;;6.80;6.20;;;12.70;99.90;;;;;;4946912;28;20884;-82
2020/12/22 09:01:21;;;;;;;6.90;6.20;;;12.70;99.90;;;;;;4938082;29;20506;-81
2020/12/22 09:03:52;;;;;;;7.27;6.60;;;12.70;99.90;;;;;;4954181;29;20451;-82
2020/12/22 09:06:31;;;;;;;5.73;5.23;;;12.80;99.90;;;;;;4938875;29;20480;-82
2020/12/22 09:09:12;;;;;;;6.20;5.60;;;12.70;99.90;;;;;;4954889;29;20509;-82
2020/12/22 09:11:40;;;;;;;6.77;6.17;;;12.70;99.90;;;;;;4951372;29;20446;-81
2020/12/22 09:14:10;;;;;;;6.83;6.00;;;12.80;99.90;;;;;;4955260;29;20826;-82
2020/12/22 09:16:53;;;;;;;7.93;6.70;;;12.80;99.90;;;;;;4939564;29;20552;-82
2020/12/22 09:19:29;;;;;;;6.07;5.47;;;12.80;99.90;;;;;;4949903;29;20811;-82
2020/12/22 09:22:03;;;;;;;6.20;5.27;;;12.80;99.90;;;;;;4936757;29;20582;-81
2020/12/22 09:24:33;;;;;;;6.10;5.53;;;12.80;99.90;;;;;;4937829;29;20438;-82
2020/12/22 09:27:04;;;;;;;6.77;6.17;;;12.80;99.90;;;;;;4969578;28;20506;-80
2020/12/22 09:29:32;;;;;;;6.80;5.83;;;12.80;99.90;;;;;;4937019;29;20531;-81
2020/12/22 09:32:00;;;;;;;6.80;6.10;;;12.80;99.90;;;;;;4944344;29;20460;-81
2020/12/22 09:34:30;;;;;;;6.40;5.80;;;12.80;99.90;;;;;;4952220;29;20546;-82
2020/12/22 09:36:58;;;;;;;5.90;5.40;;;12.80;99.90;;;;;;4937462;29;20431;-81
2020/12/22 09:39:27;;;;;;;17.23;15.40;;;12.80;99.90;;;;;;4952272;29;20478;-81
2020/12/22 09:41:55;;;;;;;6.60;6.00;;;12.80;99.90;;;;;;4968516;28;21051;-82
2020/12/22 09:44:23;;;;;;;6.00;5.50;;;12.80;99.90;;;;;;4952304;29;20440;-82
2020/12/22 09:46:53;;;;;;;6.23;5.63;;;12.80;99.90;;;;;;4969271;28;20515;-81
2020/12/22 09:49:22;;;;;;;7.40;5.63;;;12.80;99.90;;;;;;4953405;29;20479;-81
2020/12/22 09:51:52;;;;;;;6.88;6.00;;;12.80;99.90;;;;;;4952706;29;20452;-82
2020/12/22 09:54:20;;;;;;;7.73;5.20;;;12.80;99.90;;;;;;4970657;28;20235;-81
2020/12/22 09:56:48;;;;;;;5.80;5.30;;;12.80;99.90;;;;;;4956135;29;20884;-82
2020/12/22 09:59:16;;;;;;;6.57;5.13;;;12.80;99.90;;;;;;4956325;29;20475;-82
2020/12/22 10:01:46;;;;;;;7.50;6.70;;;12.80;99.90;;;;;;4956223;29;20855;-82
2020/12/22 10:04:14;;;;;;;6.37;5.80;;;12.80;99.90;;;;;;4974464;28;20506;-82
2020/12/22 10:06:43;;;;;;;6.63;5.93;;;12.80;99.90;;;;;;4944750;29;20470;-81
2020/12/22 10:09:11;;;;;;;4.47;3.80;;;12.80;99.90;;;;;;4960617;28;20475;-82
2020/12/22 10:11:39;;;;;;;5.53;3.70;;;12.80;99.90;;;;;;4956269;29;20491;-82
2020/12/22 10:14:07;;;;;;;3.27;2.70;;;12.80;99.90;;;;;;4940070;29;20447;-83
2020/12/22 10:16:34;;;;;;;4.40;3.10;;;12.80;99.90;;;;;;4959208;29;20509;-82
2020/12/22 10:19:02;;;;;;;3.80;3.30;;;12.80;99.90;;;;;;4958853;29;20582;-81
2020/12/22 10:21:30;;;;;;;3.83;3.03;;;12.80;99.90;;;;;;4958849;29;20478;-81
2020/12/22 10:24:00;;;;;;;3.77;2.83;;;12.80;99.90;;;;;;4959473;29;20454;-82
2020/12/22 10:26:28;;;;;;;5.17;3.40;;;12.80;99.90;;;;;;4991524;28;20892;-82
2020/12/22 10:28:56;;;;;;;4.40;3.20;;;12.80;99.90;;;;;;4960381;29;20525;-81
2020/12/22 10:31:25;;;;;;;4.17;3.43;;;12.80;99.90;;;;;;4959061;29;20458;-82
2020/12/22 10:33:53;;;;;;;4.03;3.13;;;12.80;99.90;;;;;;4959305;29;20454;-82
2020/12/22 10:36:21;;;;;;;4.17;2.40;;;12.80;99.90;;;;;;4960320;29;20466;-81
2020/12/22 10:38:53;;;;;;;5.00;2.10;;;12.80;99.90;;;;;;4955922;29;20475;-82
2020/12/22 10:41:23;;;;;;;4.27;2.13;;;12.80;99.90;;;;;;4940436;29;20502;-82
2020/12/22 10:43:51;;;;;;;4.50;2.73;;;12.80;99.90;;;;;;4946526;29;20549;-82
2020/12/22 10:46:19;;;;;;;2.60;1.70;;;12.80;99.90;;;;;;4973069;28;20458;-82
2020/12/22 10:48:48;;;;;;;3.23;2.13;;;12.80;99.90;;;;;;4960400;29;20466;-82
2020/12/22 10:51:15;;;;;;;2.03;1.83;;;12.70;99.90;;;;;;4991389;28;20851;-81
2020/12/22 10:53:43;;;;;;;3.80;3.00;;;12.70;99.90;;;;;;4959951;29;20937;-82
2020/12/22 10:56:11;;;;;;;2.77;2.50;;;12.70;99.90;;;;;;4958899;29;20478;-81
2020/12/22 10:58:41;;;;;;;2.90;2.10;;;12.60;99.90;;;;;;4958245;29;20606;-81
2020/12/22 11:01:13;;;;;;;2.20;2.00;;;12.50;99.90;;;;;;4971210;28;20513;-81
2020/12/22 11:03:41;;;;;;;2.53;2.33;;;12.60;99.90;;;;;;4941535;29;20179;-81
2020/12/22 11:06:18;;;;;;;3.73;2.50;;;12.50;99.90;;;;;;4956049;28;20456;-81
2020/12/22 11:08:46;;;;;;;3.47;2.70;;;12.50;99.90;;;;;;4959716;29;20456;-81
2020/12/22 11:11:14;;;;;;;2.60;2.40;;;12.40;99.90;;;;;;4961636;29;20254;-81
2020/12/22 11:13:42;;;;;;;3.20;2.70;;;12.40;99.90;;;;;;4960841;29;20830;-81
2020/12/22 11:16:10;;;;;;;4.43;3.37;;;12.40;99.90;;;;;;4960274;29;20431;-82
2020/12/22 11:18:38;;;;;;;4.07;3.67;;;12.30;99.90;;;;;;4960310;29;21014;-81
2020/12/22 11:21:10;;;;;;;5.10;3.77;;;12.30;99.90;;;;;;4964731;28;20940;-80
2020/12/22 11:23:46;;;;;;;3.77;3.47;;;12.30;99.90;;;;;;4958463;29;20533;-81
2020/12/22 11:26:15;;;;;;;5.10;4.20;;;12.20;99.90;;;;;;4956591;29;20541;-80
2020/12/22 11:28:43;;;;;;;4.47;3.63;;;12.10;99.90;;;;;;4955401;29;20480;-81
2020/12/22 11:31:11;;;;;;;6.33;4.20;;;12.00;99.90;;;;;;4954742;29;20517;-81
2020/12/22 11:33:40;;;;;;;5.57;3.90;;;12.00;99.90;;;;;;4969604;28;20510;-81
2020/12/22 11:36:09;;;;;;;8.40;4.10;;;11.90;99.90;;;;;;4953861;29;20451;-81
2020/12/22 11:38:36;;;;;;;6.47;3.97;;;11.80;99.90;;;;;;4953846;29;20530;-80
2020/12/22 11:41:04;;;;;;;5.90;4.43;;;11.70;99.90;;;;;;4954209;29;20878;-80
2020/12/22 11:43:31;;;;;;;5.33;4.30;;;11.70;99.90;;;;;;4954100;29;20451;-81
2020/12/22 11:46:00;;;;;;;6.87;3.80;;;11.60;99.90;;;;;;4938902;29;20452;-81
2020/12/22 11:48:27;;;;;;;5.10;4.20;;;11.50;99.90;;;;;;4942146;29;20471;-81
2020/12/22 11:50:55;;;;;;;4.67;4.03;;;11.50;99.90;;;;;;4958322;29;20448;-81
2020/12/22 11:53:22;;;;;;;6.73;4.37;;;11.40;99.90;;;;;;4958459;29;20486;-81
2020/12/22 11:55:52;;;;;;;6.30;4.37;;;11.40;99.90;;;;;;4956929;29;20463;-80
2020/12/22 11:58:19;;;;;;;5.37;4.10;;;11.40;99.90;;;;;;4956964;29;20493;-80
2020/12/22 12:00:47;;;;;;;7.67;4.10;;;11.30;99.90;;;;;;4956177;29;20851;-80
2020/12/22 12:03:15;;;;;;;10.17;4.23;;;11.30;99.90;;;;;;4957004;29;20517;-80
2020/12/22 12:05:42;;;;;;;6.90;4.13;;;11.20;99.90;;;;;;4956600;29;20454;-80
2020/12/22 12:08:09;;;;;;;6.60;3.70;;;11.20;99.90;;;;;;4956358;28;20556;-80
2020/12/22 12:10:37;;;;;;;5.93;5.30;;;11.10;99.90;;;;;;4953876;29;20474;-81
2020/12/22 12:13:04;;;;;;;5.63;3.83;;;11.10;99.90;;;;;;4953838;29;20481;-81
2020/12/22 12:15:31;;;;;;;5.37;3.83;;;11.10;99.90;;;;;;4957033;29;20539;-80
2020/12/22 12:17:58;;;;;;;5.30;2.80;;;11.10;99.90;;;;;;4956812;28;20970;-81
2020/12/22 12:20:26;;;;;;;4.40;3.60;;;11.10;99.90;;;;;;4961244;29;20466;-81
2020/12/22 12:22:54;;;;;;;5.73;2.93;;;11.00;99.90;;;;;;4957478;29;20525;-81
2020/12/22 12:25:21;;;;;;;7.53;3.97;;;11.00;99.90;;;;;;4956870;29;20475;-81
2020/12/22 12:27:48;;;;;;;6.03;3.77;;;11.00;99.90;;;;;;4958170;29;20234;-81
2020/12/22 12:30:16;;;;;;;9.17;4.70;;;11.00;99.90;;;;;;4963327;23;20881;-81
2020/12/22 12:32:43;;;;;;;7.97;5.50;;;11.00;99.90;;;;;;4947475;29;20505;-81
2020/12/22 12:35:11;;;;;;;7.17;4.00;;;11.00;99.90;;;;;;4957299;29;20434;-81
2020/12/22 12:37:39;;;;;;;7.07;5.13;;;11.00;99.90;;;;;;4967977;28;20490;-81
2020/12/22 12:40:06;;;;;;;6.20;5.13;;;11.00;99.90;;;;;;4941343;29;20446;-81
2020/12/22 12:42:34;;;;;;;5.30;4.80;;;11.00;99.90;;;;;;4938332;29;20479;-81
2020/12/22 12:45:01;;;;;;;8.37;4.10;;;10.90;99.90;;;;;;4923060;29;20447;-81
2020/12/22 12:47:28;;;;;;;5.40;4.53;;;10.90;99.90;;;;;;4922710;29;20483;-81
2020/12/22 12:49:55;;;;;;;5.20;4.00;;;10.90;99.90;;;;;;4922422;29;20915;-81
2020/12/22 12:52:25;;;;;;;6.03;4.93;;;10.90;99.90;;;;;;4922633;29;20456;-81
2020/12/22 12:54:53;;;;;;;6.30;4.27;;;10.90;99.90;;;;;;4924518;29;20490;-81